• Join FlightAware (Why Join?)
  • Login
  • US Flag 
03:15PM EDT


 

Airport Tracker/Info


-or-


 

Live Flight TrackerFlight Track Log ✈ PDT4108 ✈ 08-Mar-2014 ✈ KBWI - KPHL

Flight Track Log - Related Links

Times and Time Zones

All times are in EST time to prevent confusion due to time zone crossing. See the PDT4108 flight status page for this flight to view local times or setup timezone preferences in your user account.

Time Position Orientation Groundspeed Altitude Reporting Facility
EST Latitude Longitude Course Direction KTS MPH feet Rate Location/Type
02:42PM 39.2000 -76.6667 360° North 110 127 1,300  Level Potomac TRACON
02:43PM 39.2333 -76.6667 360° North 136 157 2,800 1,380 Climbing Potomac TRACON
02:44PM 39.2500 -76.6333 57° Northeast 174 200 4,100 1,080 Climbing Potomac TRACON
02:45PM 39.2333 -76.5667 108° East 195 224 5,000 420 Climbing Potomac TRACON
02:46PM 39.2000 -76.5167 131° Southeast 233 268 5,000  Level Potomac TRACON
02:47PM 39.1833 -76.4333 104° East 241 277 5,000  Level Potomac TRACON
02:48PM 39.1667 -76.3333 102° East 251 289 5,000  Level Potomac TRACON
02:49PM 39.1667 -76.2500 90° East 257 296 5,000  Level Potomac TRACON
02:50PM 39.2167 -76.2000 38° Northeast 227 261 5,000 -60 Level Potomac TRACON
02:52PM 39.2833 -76.1000 49° Northeast 220 253 4,900 -60 Descending Philadelphia TRACON
02:53PM 39.3167 -76.0333 57° Northeast 236 272 4,900  Level Philadelphia TRACON
02:54PM 39.3500 -75.9333 67° East 239 275 4,900  Level Philadelphia TRACON
02:55PM 39.3667 -75.8667 72° East 234 269 4,900  Level Philadelphia TRACON
02:56PM 39.4000 -75.8000 57° Northeast 237 273 4,900  Level Philadelphia TRACON
02:57PM 39.4167 -75.7167 75° East 238 274 4,900  Level Philadelphia TRACON
02:58PM 39.4500 -75.6500 57° Northeast 238 274 5,000  Climbing Philadelphia TRACON
02:59PM 39.4833 -75.5667 63° Northeast 235 270 5,000 -60 Level Philadelphia TRACON
03:00PM 39.5000 -75.4833 75° East 233 268 4,900 -300 Descending Philadelphia TRACON
03:01PM 39.5333 -75.4000 63° Northeast 246 283 4,400 -480 Descending Philadelphia TRACON
03:02PM 39.5667 -75.3333 57° Northeast 256 295 4,000 -240 Descending Philadelphia TRACON
03:03PM 39.6000 -75.2667 57° Northeast 204 235 4,000 -540 Level Philadelphia TRACON
03:04PM 39.6500 -75.2333 27° Northeast 189 217 3,000 -1,020 Descending Philadelphia TRACON
03:05PM 39.6833 -75.2000 38° Northeast 190 219 2,100 -660 Descending Philadelphia TRACON
03:06PM 39.7333 -75.2000 360° North 162 186 1,800 -360 Descending Philadelphia TRACON
03:07PM 39.7833 -75.2000 360° North 164 189 1,400 -360 Descending Philadelphia TRACON
03:08PM 39.8333 -75.2167 346° North 149 171 1,100 -600 Descending Philadelphia TRACON
03:09PM 39.8667 -75.2167 360° North 114 131 300 -840 Descending Philadelphia TRACON